createdAt,value
2018-05-16T00:02:14.622Z,94692.69
2018-05-16T00:04:40.612Z,94688.35
2018-05-16T00:07:06.590Z,94691.31
2018-05-16T00:09:32.579Z,94681.66
2018-05-16T00:11:58.561Z,94705.30
2018-05-16T00:14:24.546Z,94694.07
2018-05-16T00:16:50.523Z,94678.91
2018-05-16T00:19:16.564Z,94690.51
2018-05-16T00:21:42.548Z,94689.53
2018-05-16T00:24:08.535Z,94685.40
2018-05-16T00:26:34.528Z,94691.89
2018-05-16T00:29:00.515Z,94681.84
2018-05-16T00:31:26.493Z,94699.76
2018-05-16T00:33:52.481Z,94692.46
2018-05-16T00:36:18.454Z,94685.17
2018-05-16T00:38:44.439Z,94700.73
2018-05-16T00:41:10.420Z,94685.38
2018-05-16T00:43:36.422Z,94682.41
2018-05-16T00:46:02.408Z,94679.28
2018-05-16T00:48:28.402Z,94675.52
2018-05-16T00:50:54.387Z,94682.61
2018-05-16T00:53:20.368Z,94699.56
2018-05-16T00:55:46.346Z,94680.83
2018-05-16T00:58:12.328Z,94675.72
2018-05-16T01:00:38.316Z,94683.99
2018-05-16T01:03:04.308Z,94678.48
2018-05-16T01:05:30.288Z,94675.31
2018-05-16T01:07:56.283Z,94696.00
2018-05-16T01:10:22.258Z,94687.33
2018-05-16T01:12:48.252Z,94679.05
2018-05-16T01:15:14.232Z,94696.00
2018-05-16T01:17:40.218Z,94701.69
2018-05-16T01:20:06.209Z,94707.20
2018-05-16T01:22:32.227Z,94711.33
2018-05-16T01:24:58.242Z,94728.88
2018-05-16T01:27:24.197Z,94713.31
2018-05-16T01:29:50.181Z,94709.95
2018-05-16T01:32:16.168Z,94704.64
2018-05-16T01:34:42.152Z,94733.02
2018-05-16T01:37:08.138Z,94728.48
2018-05-16T01:39:34.134Z,94728.25
2018-05-16T01:42:00.107Z,94719.41
2018-05-16T01:44:26.096Z,94743.24
2018-05-16T01:46:52.070Z,94738.30
2018-05-16T01:49:18.073Z,94729.63
2018-05-16T01:51:44.056Z,94737.91
2018-05-16T01:54:10.083Z,94736.92
2018-05-16T01:56:36.055Z,94748.36
2018-05-16T01:59:02.030Z,94752.48
2018-05-16T02:01:28.039Z,94769.20
2018-05-16T02:03:54.027Z,94753.06
2018-05-16T02:06:19.998Z,94748.16
2018-05-16T02:08:45.989Z,94750.30
2018-05-16T02:11:11.970Z,94757.00
2018-05-16T02:13:37.951Z,94756.59
2018-05-16T02:16:03.943Z,94757.80
2018-05-16T02:18:29.924Z,94771.59
2018-05-16T02:20:55.919Z,94781.01
2018-05-16T02:23:21.908Z,94780.61
2018-05-16T02:25:47.935Z,94784.74
2018-05-16T02:28:13.922Z,94783.77
2018-05-16T02:30:39.913Z,94781.41
2018-05-16T02:33:05.901Z,94778.83
2018-05-16T02:35:31.875Z,94768.77
2018-05-16T02:37:57.876Z,94770.55
2018-05-16T02:40:23.908Z,94778.05
2018-05-16T02:42:49.896Z,94787.70
2018-05-16T02:45:15.873Z,94791.83
2018-05-16T02:47:42.002Z,94794.19
2018-05-16T02:50:07.863Z,94802.46
2018-05-16T02:52:33.848Z,94801.66
2018-05-16T02:54:59.839Z,94812.52
2018-05-16T02:57:25.822Z,94801.25
2018-05-16T02:59:51.809Z,94808.95
2018-05-16T03:02:17.796Z,94805.39
2018-05-16T03:04:43.779Z,94814.46
2018-05-16T03:07:09.763Z,94808.14
2018-05-16T03:09:35.770Z,94803.44
2018-05-16T03:12:01.752Z,94811.70
2018-05-16T03:14:27.733Z,94810.50
2018-05-16T03:16:53.723Z,94793.95
2018-05-16T03:19:19.811Z,94811.88
2018-05-16T03:21:45.692Z,94812.08
2018-05-16T03:24:11.672Z,94812.48
2018-05-16T03:26:37.660Z,94804.78
2018-05-16T03:29:03.648Z,94799.44
2018-05-16T03:31:29.625Z,94814.03
2018-05-16T03:33:55.617Z,94805.19
2018-05-16T03:36:21.604Z,94806.34
2018-05-16T03:38:47.603Z,94837.06
2018-05-16T03:41:13.593Z,94828.22
2018-05-16T03:43:39.582Z,94833.33
2018-05-16T03:46:05.573Z,94843.55
2018-05-16T03:48:31.556Z,94853.20
2018-05-16T03:50:57.556Z,94851.82
2018-05-16T03:53:23.540Z,94858.31
2018-05-16T03:55:49.534Z,94862.45
2018-05-16T03:58:15.970Z,94867.59
2018-05-16T04:00:41.927Z,94862.64
2018-05-16T04:03:07.912Z,94859.34
2018-05-16T04:05:33.889Z,94863.08
2018-05-16T04:07:59.912Z,94869.57
2018-05-16T04:10:25.867Z,94880.20
2018-05-16T04:12:51.862Z,94881.17
2018-05-16T04:15:17.859Z,94884.73
2018-05-16T04:17:43.858Z,94881.00
2018-05-16T04:20:09.846Z,94877.84
2018-05-16T04:22:35.838Z,94891.05
2018-05-16T04:25:01.834Z,94886.91
2018-05-16T04:27:27.830Z,94882.95
2018-05-16T04:29:53.826Z,94898.11
2018-05-16T04:32:19.817Z,94904.03
2018-05-16T04:34:45.860Z,94898.72
2018-05-16T04:37:11.847Z,94904.87
2018-05-16T04:39:37.830Z,94907.63
2018-05-16T04:42:03.809Z,94919.03
2018-05-16T04:44:29.811Z,94913.91
2018-05-16T04:46:55.792Z,94917.08
2018-05-16T04:49:21.792Z,94917.08
2018-05-16T04:51:47.778Z,94911.16
2018-05-16T04:54:13.758Z,94914.89
2018-05-16T04:56:39.792Z,94919.83
2018-05-16T04:59:05.787Z,94915.90
2018-05-16T05:01:31.773Z,94918.66
2018-05-16T05:03:57.751Z,94923.94
2018-05-16T05:06:23.773Z,94933.02
2018-05-16T05:08:49.871Z,94929.85
2018-05-16T05:11:15.751Z,94937.14
2018-05-16T05:13:41.736Z,94934.56
2018-05-16T05:16:07.789Z,94936.34
2018-05-16T05:18:33.893Z,94946.19
2018-05-16T05:20:59.760Z,94946.56
2018-05-16T05:23:25.810Z,94941.45
2018-05-16T05:25:51.755Z,94938.26
2018-05-16T05:28:17.737Z,94937.08
2018-05-16T05:30:43.742Z,94939.61
2018-05-16T05:33:09.723Z,94945.72
2018-05-16T05:35:35.708Z,94943.94
2018-05-16T05:38:01.744Z,94940.78
2018-05-16T05:40:27.722Z,94953.42
2018-05-16T05:42:53.759Z,94952.28
2018-05-16T05:45:19.713Z,94956.18
2018-05-16T05:47:45.689Z,94958.90
2018-05-16T05:50:11.681Z,94967.77
2018-05-16T05:52:37.704Z,94967.94
2018-05-16T05:55:03.687Z,94977.99
2018-05-16T05:57:29.736Z,94975.64
2018-05-16T05:59:55.719Z,94969.16
2018-05-16T06:02:21.690Z,94976.82
2018-05-16T06:04:47.691Z,94972.48
2018-05-16T06:07:13.674Z,94971.67
2018-05-16T06:09:39.664Z,94972.28
2018-05-16T06:12:05.648Z,94974.23
2018-05-16T06:14:31.625Z,94980.72
2018-05-16T06:16:57.606Z,94975.03
2018-05-16T06:19:23.604Z,94982.50
2018-05-16T06:21:49.586Z,94978.16
2018-05-16T06:24:15.589Z,94982.53
2018-05-16T06:26:41.572Z,94978.16
2018-05-16T06:29:07.564Z,94982.90
2018-05-16T06:31:33.568Z,94987.03
2018-05-16T06:33:59.589Z,94989.39
2018-05-16T06:36:25.621Z,94986.44
2018-05-16T06:38:51.641Z,94992.95
2018-05-16T06:41:17.602Z,94996.45
2018-05-16T06:43:43.594Z,94995.67
2018-05-16T06:46:09.577Z,94990.16
2018-05-16T06:48:35.577Z,94998.41
2018-05-16T06:51:01.560Z,94992.13
2018-05-16T06:53:27.552Z,94991.48
2018-05-16T06:55:53.548Z,94994.28
2018-05-16T06:58:19.540Z,94996.70
2018-05-16T07:00:45.517Z,94988.80
2018-05-16T07:03:11.509Z,94992.73
2018-05-16T07:05:37.490Z,94988.42
2018-05-16T07:08:03.483Z,94989.37
2018-05-16T07:10:29.465Z,94992.26
2018-05-16T07:12:55.447Z,94985.87
2018-05-16T07:15:21.459Z,94997.23
2018-05-16T07:17:47.421Z,94999.14
2018-05-16T07:20:13.432Z,94998.34
2018-05-16T07:22:39.414Z,95002.27
2018-05-16T07:25:05.399Z,95000.69
2018-05-16T07:27:31.488Z,95002.64
2018-05-16T07:29:57.390Z,94994.37
2018-05-16T07:32:23.450Z,94994.87
2018-05-16T07:34:49.365Z,94998.20
2018-05-16T07:37:15.348Z,95004.28
2018-05-16T07:39:41.442Z,95003.06
2018-05-16T07:42:07.427Z,95008.55
2018-05-16T07:44:33.402Z,95006.53
2018-05-16T07:46:59.434Z,94998.26
2018-05-16T07:49:25.374Z,95000.81
2018-05-16T07:51:51.357Z,95002.02
2018-05-16T07:54:17.352Z,95009.11
2018-05-16T07:56:43.331Z,94996.67
2018-05-16T07:59:09.325Z,95008.31
2018-05-16T08:01:35.316Z,95013.41
2018-05-16T08:04:01.301Z,95006.16
2018-05-16T08:06:27.285Z,95024.23
2018-05-16T08:08:53.271Z,95028.54
2018-05-16T08:11:19.274Z,95026.22
2018-05-16T08:13:45.251Z,95027.47
2018-05-16T08:16:11.243Z,95026.66
2018-05-16T08:18:37.241Z,95024.14
2018-05-16T08:21:03.236Z,95021.19
2018-05-16T08:23:29.216Z,95023.20
2018-05-16T08:25:55.194Z,95021.45
2018-05-16T08:28:21.180Z,95025.40
2018-05-16T08:30:47.210Z,95025.80
2018-05-16T08:33:13.259Z,95037.23
2018-05-16T08:35:39.273Z,95033.09
2018-05-16T08:38:05.276Z,95032.12
2018-05-16T08:40:31.288Z,95029.77
2018-05-16T08:42:57.318Z,95033.90
2018-05-16T08:45:23.295Z,95031.55
2018-05-16T08:47:59.887Z,95027.75
2018-05-16T08:50:27.005Z,95034.88
2018-05-16T08:52:53.008Z,95037.80
2018-05-16T08:55:19.023Z,95035.24
2018-05-16T08:57:47.979Z,95030.73
2018-05-16T09:00:25.137Z,95046.87
2018-05-16T09:02:51.320Z,95047.69
2018-05-16T09:05:15.384Z,95036.06
2018-05-16T09:07:44.950Z,95045.53
2018-05-16T09:10:10.973Z,95046.55
2018-05-16T09:12:36.973Z,95046.95
2018-05-16T09:15:05.029Z,95042.41
2018-05-16T09:17:39.341Z,95046.18
2018-05-16T09:20:08.037Z,95045.41
2018-05-16T09:22:38.593Z,95050.31
2018-05-16T09:25:04.690Z,95046.42
2018-05-16T09:27:40.554Z,95029.47
2018-05-16T09:30:05.379Z,95035.80
2018-05-16T09:32:34.030Z,95027.52
2018-05-16T09:35:01.269Z,95028.30
2018-05-16T09:37:26.430Z,95018.25
2018-05-16T09:39:55.495Z,95017.84
2018-05-16T09:42:21.529Z,95017.20
2018-05-16T09:47:13.402Z,95018.00
2018-05-16T09:49:40.499Z,95014.67
2018-05-16T09:52:05.556Z,95009.16
2018-05-16T09:54:31.779Z,95010.14
2018-05-16T09:56:57.757Z,95007.98
2018-05-16T09:59:23.911Z,95005.63
2018-05-16T10:01:50.084Z,95006.04
2018-05-16T10:04:16.425Z,95010.17
2018-05-16T10:06:42.612Z,95016.49
2018-05-16T10:09:08.674Z,95013.73
2018-05-16T10:11:34.663Z,95010.20
2018-05-16T10:14:00.945Z,95011.15
2018-05-16T10:16:26.961Z,95013.33
2018-05-16T10:18:52.997Z,95019.42
2018-05-16T10:21:19.050Z,95011.55
2018-05-16T10:23:45.150Z,95016.09
2018-05-16T10:26:11.136Z,95014.71
2018-05-16T10:28:37.240Z,95007.42
2018-05-16T10:31:03.355Z,95008.39
2018-05-16T10:33:29.629Z,95013.13
2018-05-16T10:35:55.785Z,95018.04
2018-05-16T10:38:21.887Z,95014.11
2018-05-16T10:40:48.001Z,95009.80
2018-05-16T10:43:14.116Z,95018.88
2018-05-16T10:45:40.219Z,95021.84
2018-05-16T10:48:06.242Z,95013.61
2018-05-16T10:50:32.301Z,95018.38
2018-05-16T10:52:58.322Z,95013.23
2018-05-16T10:55:24.355Z,95011.86
2018-05-16T10:57:50.387Z,95010.92
2018-05-16T11:00:16.463Z,95015.46
2018-05-16T11:02:42.599Z,95011.89
2018-05-16T11:05:08.655Z,95012.12
2018-05-16T11:07:34.673Z,95007.02
2018-05-16T11:10:00.718Z,95012.53
2018-05-16T11:12:26.851Z,95015.50
2018-05-16T11:14:52.954Z,95010.78
2018-05-16T11:17:19.034Z,95011.77
2018-05-16T11:19:45.087Z,95009.20
2018-05-16T11:22:11.078Z,95014.16
2018-05-16T11:24:37.069Z,95009.84
2018-05-16T11:27:03.235Z,95014.39
2018-05-16T11:29:29.223Z,95019.13
2018-05-16T11:31:55.264Z,95008.67
2018-05-16T11:34:21.238Z,95013.41
2018-05-16T11:36:47.273Z,95017.78
2018-05-16T11:39:13.268Z,95006.72
2018-05-16T11:41:39.257Z,94998.62
2018-05-16T11:44:05.303Z,95006.15
2018-05-16T11:46:31.346Z,95001.61
2018-05-16T11:48:57.445Z,95001.41
2018-05-16T11:51:23.355Z,95001.81
2018-05-16T11:53:49.380Z,94999.86
2018-05-16T11:56:15.389Z,95005.78
2018-05-16T11:58:41.420Z,94998.08
2018-05-16T12:01:07.475Z,94998.84
2018-05-16T12:03:33.444Z,94994.48
2018-05-16T12:05:59.588Z,94990.17
2018-05-16T12:08:25.570Z,94976.16
2018-05-16T12:10:51.689Z,94985.63
2018-05-16T12:13:17.603Z,94988.22
2018-05-16T12:15:43.643Z,94985.09
2018-05-16T12:18:09.723Z,94984.13
2018-05-16T12:20:35.819Z,94974.27
2018-05-16T12:23:01.837Z,94993.37
2018-05-16T12:25:29.062Z,94977.80
2018-05-16T12:27:53.891Z,94987.25
2018-05-16T12:30:20.299Z,94980.76
2018-05-16T12:32:46.363Z,94974.84
2018-05-16T12:35:12.350Z,94983.72
2018-05-16T12:37:38.575Z,94978.61
2018-05-16T12:40:04.541Z,94976.08
2018-05-16T12:42:30.667Z,94976.08
2018-05-16T12:44:56.896Z,94973.33
2018-05-16T12:47:22.875Z,94967.81
2018-05-16T12:49:48.894Z,94969.19
2018-05-16T12:52:14.889Z,94971.14
2018-05-16T12:54:40.901Z,94970.97
2018-05-16T12:57:06.998Z,94968.21
2018-05-16T12:59:33.127Z,94960.91
2018-05-16T13:01:59.179Z,94961.52
2018-05-16T13:04:27.962Z,94968.05
2018-05-16T13:06:51.651Z,94971.17
2018-05-16T13:09:18.116Z,94964.68
2018-05-16T13:11:52.143Z,94970.59
2018-05-16T13:14:18.329Z,94959.40
2018-05-16T13:16:44.303Z,94958.42
2018-05-16T13:19:10.389Z,94951.73
2018-05-16T13:21:36.572Z,94953.69
2018-05-16T13:24:02.515Z,94958.22
2018-05-16T13:26:28.626Z,94956.47
2018-05-16T13:28:54.752Z,94966.73
2018-05-16T13:31:27.005Z,94963.77
2018-05-16T13:33:52.997Z,94965.95
2018-05-16T13:36:19.057Z,94959.47
2018-05-16T13:38:45.085Z,94969.32
2018-05-16T13:41:11.015Z,94963.20
2018-05-16T13:43:37.027Z,94966.53
2018-05-16T13:46:03.207Z,94970.64
2018-05-16T13:48:29.228Z,94963.56
2018-05-16T13:50:55.323Z,94970.30
2018-05-16T13:53:21.421Z,94970.30
2018-05-16T13:55:47.353Z,94965.38
2018-05-16T13:58:13.372Z,94961.45
2018-05-16T14:00:39.400Z,94964.41
2018-05-16T14:03:05.490Z,94955.97
2018-05-16T14:05:31.509Z,94960.91
2018-05-16T14:07:57.545Z,94947.55
2018-05-16T14:10:23.529Z,94951.86
2018-05-16T14:12:49.530Z,94949.51
2018-05-16T14:15:15.604Z,94951.32
2018-05-16T14:17:41.543Z,94948.56
2018-05-16T14:20:07.674Z,94952.47
2018-05-16T14:22:33.756Z,94956.23
2018-05-16T14:24:59.771Z,94953.13
2018-05-16T14:27:25.766Z,94954.52
2018-05-16T14:29:51.769Z,94952.56
2018-05-16T14:32:17.758Z,94947.68
2018-05-16T14:34:43.781Z,94943.14
2018-05-16T14:37:09.804Z,94941.22
2018-05-16T14:39:35.836Z,94942.22
2018-05-16T14:42:01.841Z,94948.11
2018-05-16T14:44:27.900Z,94943.74
2018-05-16T14:46:53.890Z,94946.91
2018-05-16T14:49:19.979Z,94939.61
2018-05-16T14:51:58.560Z,94947.48
2018-05-16T14:54:20.826Z,94946.50
2018-05-16T14:56:52.170Z,94937.82
2018-05-16T14:59:19.055Z,94940.61
2018-05-16T15:01:46.923Z,94937.85
2018-05-16T15:04:15.940Z,94933.72
2018-05-16T15:06:42.055Z,94936.10
2018-05-16T15:09:08.465Z,94924.09
2018-05-16T15:11:40.763Z,94929.61
2018-05-16T15:14:08.610Z,94931.79
2018-05-16T15:16:34.820Z,94926.84
2018-05-16T15:19:06.730Z,94929.23
2018-05-16T15:21:32.753Z,94932.63
2018-05-16T15:23:58.802Z,94935.79
2018-05-16T15:26:25.482Z,94934.81
2018-05-16T15:28:51.549Z,94927.14
2018-05-16T15:31:17.543Z,94937.77
2018-05-16T15:33:43.661Z,94935.22
2018-05-16T15:36:09.721Z,94927.58
2018-05-16T15:38:35.738Z,94927.77
2018-05-16T15:41:12.292Z,94929.45
2018-05-16T15:43:38.316Z,94924.94
2018-05-16T15:46:04.316Z,94931.60
2018-05-16T15:48:30.374Z,94924.27
2018-05-16T15:50:56.423Z,94927.26
2018-05-16T15:53:22.456Z,94926.31
2018-05-16T15:55:48.556Z,94927.89
2018-05-16T15:58:14.619Z,94924.33
2018-05-16T16:00:40.625Z,94919.64
2018-05-16T16:03:06.669Z,94922.84
2018-05-16T16:05:32.693Z,94919.73
2018-05-16T16:07:59.028Z,94917.00
2018-05-16T16:10:25.131Z,94922.00
2018-05-16T16:12:51.158Z,94923.55
2018-05-16T16:15:17.185Z,94921.41
2018-05-16T16:17:43.222Z,94923.44
2018-05-16T16:20:09.340Z,94925.42
2018-05-16T16:22:35.305Z,94926.23
2018-05-16T16:25:01.365Z,94924.30
2018-05-16T16:27:27.400Z,94925.08
2018-05-16T16:29:53.418Z,94916.45
2018-05-16T16:32:19.410Z,94916.02
2018-05-16T16:34:45.464Z,94917.20
2018-05-16T16:37:11.456Z,94916.19
2018-05-16T16:39:37.455Z,94920.91
2018-05-16T16:42:03.476Z,94921.08
2018-05-16T16:44:29.548Z,94910.41
2018-05-16T16:46:55.571Z,94916.52
2018-05-16T16:49:21.603Z,94920.28
2018-05-16T16:51:47.557Z,94923.44
2018-05-16T16:54:13.589Z,94919.67
2018-05-16T16:56:39.747Z,94922.86
2018-05-16T16:59:05.758Z,94917.72
2018-05-16T17:01:31.750Z,94915.94
2018-05-16T17:03:57.761Z,94920.85
2018-05-16T17:06:23.803Z,94923.02
2018-05-16T17:08:50.025Z,94929.50
2018-05-16T17:11:16.021Z,94932.27
2018-05-16T17:13:42.029Z,94929.68
2018-05-16T17:16:08.082Z,94935.77
2018-05-16T17:18:34.066Z,94941.09
2018-05-16T17:21:00.183Z,94934.80
2018-05-16T17:23:26.201Z,94932.01
2018-05-16T17:25:52.235Z,94933.19
2018-05-16T17:28:18.281Z,94934.39
2018-05-16T17:30:44.270Z,94933.79
2018-05-16T17:33:12.123Z,94932.98
2018-05-16T17:35:38.313Z,94934.16
2018-05-16T17:38:10.191Z,94948.59
2018-05-16T17:40:41.261Z,94946.41
2018-05-16T17:43:07.855Z,94943.30
2018-05-16T17:45:36.920Z,94942.16
2018-05-16T17:48:06.381Z,94955.35
2018-05-16T17:50:33.501Z,94953.40
2018-05-16T17:52:59.523Z,94954.41
2018-05-16T17:55:25.484Z,94958.14
2018-05-16T17:57:51.525Z,94964.00
2018-05-16T18:00:19.861Z,94969.50
2018-05-16T18:02:48.529Z,94974.06
2018-05-16T18:05:12.459Z,94985.72
2018-05-16T18:07:38.466Z,94994.23
2018-05-16T18:10:04.483Z,94996.98
2018-05-16T18:12:31.076Z,94993.45
2018-05-16T18:15:03.678Z,95001.13
2018-05-16T18:17:29.682Z,94998.53
2018-05-16T18:19:56.070Z,94987.90
2018-05-16T18:22:22.101Z,94982.78
2018-05-16T18:24:48.151Z,94987.50
2018-05-16T18:27:14.271Z,94995.95
2018-05-16T18:29:40.252Z,94994.33
2018-05-16T18:32:06.327Z,94988.01
2018-05-16T18:34:32.384Z,94992.52
2018-05-16T18:36:58.406Z,94998.65
2018-05-16T18:39:25.593Z,95009.45
2018-05-16T18:41:52.868Z,95014.13
2018-05-16T18:44:18.940Z,95013.97
2018-05-16T18:46:46.104Z,95010.80
2018-05-16T18:49:12.305Z,95005.11
2018-05-16T18:51:40.144Z,95008.08
2018-05-16T18:54:10.552Z,95009.66
2018-05-16T18:56:38.223Z,95013.73
2018-05-16T18:59:04.247Z,95015.69
2018-05-16T19:01:31.357Z,95018.61
2018-05-16T19:04:08.728Z,95025.89
2018-05-16T19:06:36.923Z,95031.61
2018-05-16T19:09:04.707Z,95034.53
2018-05-16T19:11:31.079Z,95035.11
2018-05-16T19:13:57.100Z,95028.01
2018-05-16T19:16:23.089Z,95024.84
2018-05-16T19:18:50.531Z,95023.63
2018-05-16T19:21:16.481Z,95026.02
2018-05-16T19:23:43.298Z,95032.92
2018-05-16T19:26:09.558Z,95035.45
2018-05-16T19:28:35.748Z,95035.05
2018-05-16T19:31:01.738Z,95040.90
2018-05-16T19:33:27.725Z,95032.22
2018-05-16T19:35:53.879Z,95032.02
2018-05-16T19:38:19.952Z,95041.44
2018-05-16T19:40:45.946Z,95040.70
2018-05-16T19:43:12.546Z,95041.84
2018-05-16T19:45:38.568Z,95046.18
2018-05-16T19:48:04.603Z,95049.11
2018-05-16T19:50:30.721Z,95044.77
2018-05-16T19:52:56.755Z,95049.88
2018-05-16T19:55:22.741Z,95057.35
2018-05-16T19:57:48.779Z,95054.77
2018-05-16T20:00:14.841Z,95056.14
2018-05-16T20:02:40.812Z,95054.97
2018-05-16T20:05:06.827Z,95059.27
2018-05-16T20:07:32.981Z,95064.39
2018-05-16T20:09:59.637Z,95068.52
2018-05-16T20:12:27.165Z,95064.02
2018-05-16T20:14:56.956Z,95060.05
2018-05-16T20:17:23.764Z,95062.40
2018-05-16T20:19:49.839Z,95059.64
2018-05-16T20:22:16.060Z,95062.97
2018-05-16T20:24:42.015Z,95064.15
2018-05-16T20:27:08.642Z,95060.41
2018-05-16T20:29:34.828Z,95057.25
2018-05-16T20:32:01.583Z,95051.33
2018-05-16T20:34:28.179Z,95047.77
2018-05-16T20:36:56.793Z,95049.14
2018-05-16T20:39:25.380Z,95047.39
2018-05-16T20:44:18.648Z,95043.83
2018-05-16T20:46:44.988Z,95048.77
2018-05-16T20:49:11.562Z,95047.16
2018-05-16T20:51:38.541Z,95050.32
2018-05-16T20:54:05.803Z,95054.26
2018-05-16T20:56:32.877Z,95055.84
2018-05-16T20:58:59.297Z,95050.12
2018-05-16T21:01:26.087Z,95048.33
2018-05-16T21:03:52.067Z,95045.98
2018-05-16T21:06:18.058Z,95052.07
2018-05-16T21:08:44.046Z,95050.28
2018-05-16T21:11:10.057Z,95043.80
2018-05-16T21:13:36.019Z,95042.98
2018-05-16T21:16:02.038Z,95044.53
2018-05-16T21:18:28.025Z,95033.13
2018-05-16T21:20:54.010Z,95031.34
2018-05-16T21:23:20.020Z,95032.89
2018-05-16T21:25:45.996Z,95030.70
2018-05-16T21:28:11.979Z,95032.09
2018-05-16T21:30:37.981Z,95029.73
2018-05-16T21:33:03.960Z,95021.05
2018-05-16T21:35:29.946Z,95016.14
2018-05-16T21:37:55.922Z,95018.70
2018-05-16T21:40:21.917Z,95023.03
2018-05-16T21:42:47.901Z,95013.38
2018-05-16T21:45:13.884Z,95022.63
2018-05-16T21:47:39.907Z,95027.34
2018-05-16T21:50:05.889Z,95030.10
2018-05-16T21:52:31.894Z,95036.83
2018-05-16T21:54:57.884Z,95031.08
2018-05-16T21:57:23.876Z,95035.22
2018-05-16T21:59:49.862Z,95041.14
2018-05-16T22:02:15.846Z,95032.66
2018-05-16T22:04:41.834Z,95034.81
2018-05-16T22:07:07.826Z,95035.98
2018-05-16T22:09:33.809Z,95028.89
2018-05-16T22:11:59.795Z,95033.63
2018-05-16T22:14:25.784Z,95035.42
2018-05-16T22:16:51.770Z,95034.00
2018-05-16T22:19:17.761Z,95037.77
2018-05-16T22:21:43.749Z,95031.45
2018-05-16T22:24:09.722Z,95026.13
2018-05-16T22:26:35.718Z,95013.31
2018-05-16T22:29:01.721Z,95008.37
2018-05-16T22:31:27.704Z,94997.34
2018-05-16T22:33:53.689Z,94992.80
2018-05-16T22:36:19.671Z,94989.06
2018-05-16T22:38:45.663Z,94990.44
2018-05-16T22:41:11.646Z,94991.99
2018-05-16T22:43:37.631Z,94996.94
2018-05-16T22:46:03.613Z,94997.91
2018-05-16T22:48:29.594Z,95011.70
2018-05-16T22:50:55.592Z,95009.92
2018-05-16T22:53:21.575Z,95016.24
2018-05-16T22:55:47.559Z,95019.98
2018-05-16T22:58:13.541Z,95028.45
2018-05-16T23:00:39.527Z,95018.80
2018-05-16T23:03:05.503Z,95000.47
2018-05-16T23:05:31.538Z,95008.17
2018-05-16T23:07:57.509Z,95010.52
2018-05-16T23:10:23.493Z,95009.31
2018-05-16T23:12:49.483Z,95010.13
2018-05-16T23:15:15.474Z,95018.97
2018-05-16T23:17:41.450Z,95023.91
2018-05-16T23:20:07.445Z,95019.38
2018-05-16T23:22:33.492Z,95021.92
2018-05-16T23:24:59.469Z,95027.04
2018-05-16T23:27:25.454Z,95030.57
2018-05-16T23:29:51.440Z,95024.69
2018-05-16T23:32:17.438Z,95021.92
2018-05-16T23:34:43.420Z,95013.65
2018-05-16T23:37:09.402Z,94996.70
2018-05-16T23:39:35.383Z,94999.45
2018-05-16T23:42:01.364Z,95008.30
2018-05-16T23:44:27.344Z,95013.82
2018-05-16T23:46:53.336Z,95020.31
2018-05-16T23:49:19.316Z,95010.66
2018-05-16T23:51:45.342Z,94987.62
2018-05-16T23:54:11.325Z,94987.78
2018-05-16T23:56:37.352Z,94996.47
2018-05-16T23:59:03.336Z,94981.70
